Houston, TX

5:52 PM CST on February 06, 2016 (GMT -0600)
Hobby | | Change Station
CLOSE
Current Station
Airport
Location: Houston,
Elevation: 46 ft
Nearby Weather Stations

Elev 46 ft 29.64 °N, 95.28 °W | Updated 59 minutes ago

Partly Cloudy
Partly Cloudy
59 °F
Feels Like 59 °F
N
15
Wind Variable Wind from NNW

Today
High -- | Low -- °F
--% Chance of Precip.
Yesterday
High -- | Low -- °F
Precip. -- in
Pressure 30.31 in
Visibility 10.0 miles
Clouds Scattered Clouds 6000 ft
Dew Point 31 °F
Humidity 35%
Rainfall 0.25 in
Snow Depth Not available.
7:07 AM 6:02 PM
Waning Crescent, 3% visible
METAR KHOU 062253Z 34013KT 10SM SCT060 15/M01 A3029 RMK AO2 SLP262 T01501006
Pressure 30.31 in
Visibility 10.0 miles
Clouds Scattered Clouds 6000 ft
Dew Point 31 °F
Humidity 35%
Rainfall 0.25 in
Snow Depth Not available.
7:07 AM 6:02 PM
Waning Crescent, 3% visible
METAR KHOU 062253Z 34013KT 10SM SCT060 15/M01 A3029 RMK AO2 SLP262 T01501006

10-Day Weather Forecast

Almanac

Astronomy

Feb. 06, 2016 Rise Set
Actual Time
Civil Twilight
Nautical Twilight
Astronomical Twilight
Moon
Length of Visible Light
Length of Day
Tomorrow will be .
, % of the Moon is Illuminated

Today's Extremes

State Highs State Lows

Community

WunderPhotos

Upload Photos

1,891,098 photos uploaded!

WunderBlog® & News

Nearby

Air Quality

  Air Quality AQ Index Pollutant
Not available.

Snow Depth

Station Depth Elevation

Earthquake Activity

City Distance Mag. Time & Date
Minimum magnitude displayed is 2.5.

Coastal Water Temperatures

Place Temperature

Stations

Nearby Weather Stations

Station Location Temp. Windchill Dew Point Humidity Wind Precip. Elev Updated Type
                   

Watches & Warnings

There are currently no watches in effect.